sensor_id;sensor_type;location;lat;lon;timestamp;P1;durP1;ratioP1;P2;durP2;ratioP2
23406;SDS011;11876;53.438;18.942;2022-12-07T00:03:00;25.60;;;14.77;;
23406;SDS011;11876;53.438;18.942;2022-12-07T00:06:03;22.75;;;14.50;;
23406;SDS011;11876;53.438;18.942;2022-12-07T00:09:07;21.10;;;13.57;;
23406;SDS011;11876;53.438;18.942;2022-12-07T00:12:12;22.80;;;14.55;;
23406;SDS011;11876;53.438;18.942;2022-12-07T00:15:14;25.80;;;15.50;;
23406;SDS011;11876;53.438;18.942;2022-12-07T00:18:16;27.90;;;16.73;;
23406;SDS011;11876;53.438;18.942;2022-12-07T00:21:20;24.40;;;15.38;;
23406;SDS011;11876;53.438;18.942;2022-12-07T00:24:24;26.38;;;15.93;;
23406;SDS011;11876;53.438;18.942;2022-12-07T00:27:26;26.58;;;16.25;;
23406;SDS011;11876;53.438;18.942;2022-12-07T00:30:29;27.55;;;17.50;;
23406;SDS011;11876;53.438;18.942;2022-12-07T00:33:32;25.77;;;15.88;;
23406;SDS011;11876;53.438;18.942;2022-12-07T00:36:35;25.10;;;15.23;;
23406;SDS011;11876;53.438;18.942;2022-12-07T00:39:37;21.80;;;14.35;;
23406;SDS011;11876;53.438;18.942;2022-12-07T00:42:40;21.55;;;14.48;;
23406;SDS011;11876;53.438;18.942;2022-12-07T00:45:42;21.75;;;12.77;;
23406;SDS011;11876;53.438;18.942;2022-12-07T00:48:45;22.13;;;12.77;;
23406;SDS011;11876;53.438;18.942;2022-12-07T00:51:48;18.73;;;12.13;;
23406;SDS011;11876;53.438;18.942;2022-12-07T00:54:51;18.40;;;11.73;;
23406;SDS011;11876;53.438;18.942;2022-12-07T00:57:53;18.73;;;12.43;;
23406;SDS011;11876;53.438;18.942;2022-12-07T01:00:55;19.63;;;12.70;;
23406;SDS011;11876;53.438;18.942;2022-12-07T01:04:03;21.67;;;12.55;;
23406;SDS011;11876;53.438;18.942;2022-12-07T01:07:05;18.73;;;11.90;;
23406;SDS011;11876;53.438;18.942;2022-12-07T01:10:08;16.88;;;10.77;;
23406;SDS011;11876;53.438;18.942;2022-12-07T01:13:10;16.90;;;10.48;;
23406;SDS011;11876;53.438;18.942;2022-12-07T01:16:14;14.57;;;9.27;;
23406;SDS011;11876;53.438;18.942;2022-12-07T01:19:17;13.30;;;9.25;;
23406;SDS011;11876;53.438;18.942;2022-12-07T01:22:19;13.20;;;9.65;;
23406;SDS011;11876;53.438;18.942;2022-12-07T01:25:21;17.70;;;9.93;;
23406;SDS011;11876;53.438;18.942;2022-12-07T01:28:24;15.13;;;10.15;;
23406;SDS011;11876;53.438;18.942;2022-12-07T01:31:27;13.07;;;8.23;;
23406;SDS011;11876;53.438;18.942;2022-12-07T01:34:30;15.18;;;10.27;;
23406;SDS011;11876;53.438;18.942;2022-12-07T01:37:36;12.85;;;9.68;;
23406;SDS011;11876;53.438;18.942;2022-12-07T01:40:39;13.13;;;9.25;;
23406;SDS011;11876;53.438;18.942;2022-12-07T01:44:07;15.65;;;9.57;;
23406;SDS011;11876;53.438;18.942;2022-12-07T01:47:22;15.40;;;9.90;;
23406;SDS011;11876;53.438;18.942;2022-12-07T01:50:25;13.18;;;8.98;;
23406;SDS011;11876;53.438;18.942;2022-12-07T01:53:29;16.02;;;9.95;;
23406;SDS011;11876;53.438;18.942;2022-12-07T01:56:32;12.98;;;8.65;;
23406;SDS011;11876;53.438;18.942;2022-12-07T01:59:35;11.95;;;8.15;;
23406;SDS011;11876;53.438;18.942;2022-12-07T02:02:47;15.10;;;8.43;;
23406;SDS011;11876;53.438;18.942;2022-12-07T02:05:53;13.20;;;8.10;;
23406;SDS011;11876;53.438;18.942;2022-12-07T02:08:56;13.80;;;9.10;;
23406;SDS011;11876;53.438;18.942;2022-12-07T02:11:58;14.05;;;9.63;;
23406;SDS011;11876;53.438;18.942;2022-12-07T02:15:00;13.55;;;9.85;;
23406;SDS011;11876;53.438;18.942;2022-12-07T02:18:11;11.95;;;9.32;;
23406;SDS011;11876;53.438;18.942;2022-12-07T02:21:25;16.83;;;10.75;;
23406;SDS011;11876;53.438;18.942;2022-12-07T02:24:33;15.38;;;9.93;;
23406;SDS011;11876;53.438;18.942;2022-12-07T02:31:14;18.00;;;10.90;;
23406;SDS011;11876;53.438;18.942;2022-12-07T02:34:32;20.30;;;11.05;;
23406;SDS011;11876;53.438;18.942;2022-12-07T02:37:41;20.10;;;12.45;;
23406;SDS011;11876;53.438;18.942;2022-12-07T02:40:54;19.63;;;11.65;;
23406;SDS011;11876;53.438;18.942;2022-12-07T02:44:10;17.83;;;11.20;;
23406;SDS011;11876;53.438;18.942;2022-12-07T02:47:16;17.40;;;12.23;;
23406;SDS011;11876;53.438;18.942;2022-12-07T02:50:21;18.08;;;11.45;;
23406;SDS011;11876;53.438;18.942;2022-12-07T02:53:34;21.52;;;11.00;;
23406;SDS011;11876;53.438;18.942;2022-12-07T02:56:46;15.82;;;10.60;;
23406;SDS011;11876;53.438;18.942;2022-12-07T03:00:11;16.42;;;10.70;;
23406;SDS011;11876;53.438;18.942;2022-12-07T03:03:18;16.85;;;11.43;;
23406;SDS011;11876;53.438;18.942;2022-12-07T03:06:22;16.77;;;10.98;;
23406;SDS011;11876;53.438;18.942;2022-12-07T03:09:36;15.55;;;10.00;;
23406;SDS011;11876;53.438;18.942;2022-12-07T03:16:18;15.23;;;9.93;;
23406;SDS011;11876;53.438;18.942;2022-12-07T03:19:23;16.50;;;9.68;;
23406;SDS011;11876;53.438;18.942;2022-12-07T03:22:26;11.50;;;7.10;;
23406;SDS011;11876;53.438;18.942;2022-12-07T03:25:31;13.90;;;9.23;;
23406;SDS011;11876;53.438;18.942;2022-12-07T03:28:35;15.83;;;9.40;;
23406;SDS011;11876;53.438;18.942;2022-12-07T03:31:43;17.80;;;10.20;;
23406;SDS011;11876;53.438;18.942;2022-12-07T03:34:51;15.68;;;9.60;;
23406;SDS011;11876;53.438;18.942;2022-12-07T03:38:17;14.52;;;9.23;;
23406;SDS011;11876;53.438;18.942;2022-12-07T03:41:25;15.45;;;8.60;;
23406;SDS011;11876;53.438;18.942;2022-12-07T03:44:29;13.80;;;8.82;;
23406;SDS011;11876;53.438;18.942;2022-12-07T03:54:26;15.13;;;8.52;;
23406;SDS011;11876;53.438;18.942;2022-12-07T03:57:33;18.75;;;10.43;;
23406;SDS011;11876;53.438;18.942;2022-12-07T04:00:35;10.03;;;6.40;;
23406;SDS011;11876;53.438;18.942;2022-12-07T04:03:38;19.48;;;10.65;;
23406;SDS011;11876;53.438;18.942;2022-12-07T04:06:40;19.20;;;9.90;;
23406;SDS011;11876;53.438;18.942;2022-12-07T04:09:42;16.38;;;9.70;;
23406;SDS011;11876;53.438;18.942;2022-12-07T04:12:45;16.02;;;8.75;;
23406;SDS011;11876;53.438;18.942;2022-12-07T04:15:47;18.65;;;9.73;;
23406;SDS011;11876;53.438;18.942;2022-12-07T04:18:50;19.70;;;10.65;;
23406;SDS011;11876;53.438;18.942;2022-12-07T04:21:52;19.58;;;10.85;;
23406;SDS011;11876;53.438;18.942;2022-12-07T04:24:54;19.58;;;10.82;;
23406;SDS011;11876;53.438;18.942;2022-12-07T04:27:56;13.45;;;8.60;;
23406;SDS011;11876;53.438;18.942;2022-12-07T04:30:59;12.73;;;7.97;;
23406;SDS011;11876;53.438;18.942;2022-12-07T04:34:01;11.50;;;7.78;;
23406;SDS011;11876;53.438;18.942;2022-12-07T04:37:04;12.38;;;8.07;;
23406;SDS011;11876;53.438;18.942;2022-12-07T04:40:07;17.75;;;8.75;;
23406;SDS011;11876;53.438;18.942;2022-12-07T04:43:13;12.75;;;8.25;;
23406;SDS011;11876;53.438;18.942;2022-12-07T04:46:15;11.90;;;8.20;;
23406;SDS011;11876;53.438;18.942;2022-12-07T04:49:17;13.70;;;8.55;;
23406;SDS011;11876;53.438;18.942;2022-12-07T04:52:20;13.63;;;8.82;;
23406;SDS011;11876;53.438;18.942;2022-12-07T04:55:22;15.43;;;9.88;;
23406;SDS011;11876;53.438;18.942;2022-12-07T04:58:25;23.52;;;13.23;;
23406;SDS011;11876;53.438;18.942;2022-12-07T05:01:27;29.52;;;15.90;;
23406;SDS011;11876;53.438;18.942;2022-12-07T05:04:29;49.65;;;24.02;;
23406;SDS011;11876;53.438;18.942;2022-12-07T05:07:32;28.27;;;16.73;;
23406;SDS011;11876;53.438;18.942;2022-12-07T05:10:34;31.77;;;18.48;;
23406;SDS011;11876;53.438;18.942;2022-12-07T05:13:37;42.63;;;23.50;;
23406;SDS011;11876;53.438;18.942;2022-12-07T05:16:39;22.80;;;14.20;;
23406;SDS011;11876;53.438;18.942;2022-12-07T05:19:42;19.58;;;12.55;;
23406;SDS011;11876;53.438;18.942;2022-12-07T05:22:44;20.35;;;11.93;;
23406;SDS011;11876;53.438;18.942;2022-12-07T05:25:47;20.30;;;11.35;;
23406;SDS011;11876;53.438;18.942;2022-12-07T05:28:50;16.48;;;11.20;;
23406;SDS011;11876;53.438;18.942;2022-12-07T05:34:55;17.75;;;11.98;;
23406;SDS011;11876;53.438;18.942;2022-12-07T05:37:58;17.25;;;10.98;;
23406;SDS011;11876;53.438;18.942;2022-12-07T05:41:01;17.13;;;11.93;;
23406;SDS011;11876;53.438;18.942;2022-12-07T05:44:05;18.05;;;12.02;;
23406;SDS011;11876;53.438;18.942;2022-12-07T05:47:07;21.80;;;13.60;;
23406;SDS011;11876;53.438;18.942;2022-12-07T05:50:09;19.63;;;13.13;;
23406;SDS011;11876;53.438;18.942;2022-12-07T05:53:12;20.40;;;14.63;;
23406;SDS011;11876;53.438;18.942;2022-12-07T05:56:21;24.95;;;16.02;;
23406;SDS011;11876;53.438;18.942;2022-12-07T05:59:24;24.90;;;17.65;;
23406;SDS011;11876;53.438;18.942;2022-12-07T06:02:29;19.27;;;12.75;;
23406;SDS011;11876;53.438;18.942;2022-12-07T06:05:32;16.25;;;11.57;;
23406;SDS011;11876;53.438;18.942;2022-12-07T06:08:34;14.25;;;10.40;;
23406;SDS011;11876;53.438;18.942;2022-12-07T06:11:37;19.23;;;12.45;;
23406;SDS011;11876;53.438;18.942;2022-12-07T06:14:58;15.50;;;11.65;;
23406;SDS011;11876;53.438;18.942;2022-12-07T06:18:00;18.40;;;11.07;;
23406;SDS011;11876;53.438;18.942;2022-12-07T06:21:03;15.68;;;11.52;;
23406;SDS011;11876;53.438;18.942;2022-12-07T06:24:05;18.92;;;11.98;;
23406;SDS011;11876;53.438;18.942;2022-12-07T06:27:08;18.42;;;12.15;;
23406;SDS011;11876;53.438;18.942;2022-12-07T06:30:11;12.77;;;10.00;;
23406;SDS011;11876;53.438;18.942;2022-12-07T06:33:13;12.25;;;8.18;;
23406;SDS011;11876;53.438;18.942;2022-12-07T06:36:16;9.98;;;6.85;;
23406;SDS011;11876;53.438;18.942;2022-12-07T06:39:25;6.97;;;5.53;;
23406;SDS011;11876;53.438;18.942;2022-12-07T06:42:28;7.70;;;5.75;;
23406;SDS011;11876;53.438;18.942;2022-12-07T06:45:31;8.88;;;5.90;;
23406;SDS011;11876;53.438;18.942;2022-12-07T06:48:33;8.38;;;5.22;;
23406;SDS011;11876;53.438;18.942;2022-12-07T06:51:36;8.07;;;6.25;;
23406;SDS011;11876;53.438;18.942;2022-12-07T06:54:42;5.50;;;4.95;;
23406;SDS011;11876;53.438;18.942;2022-12-07T06:57:44;6.10;;;4.53;;
23406;SDS011;11876;53.438;18.942;2022-12-07T07:00:47;6.57;;;4.85;;
23406;SDS011;11876;53.438;18.942;2022-12-07T07:03:51;7.13;;;5.28;;
23406;SDS011;11876;53.438;18.942;2022-12-07T07:06:54;7.18;;;5.18;;
23406;SDS011;11876;53.438;18.942;2022-12-07T07:10:00;6.80;;;5.55;;
23406;SDS011;11876;53.438;18.942;2022-12-07T07:13:03;8.00;;;5.00;;
23406;SDS011;11876;53.438;18.942;2022-12-07T07:16:06;8.02;;;5.03;;
23406;SDS011;11876;53.438;18.942;2022-12-07T07:19:09;7.20;;;5.67;;
23406;SDS011;11876;53.438;18.942;2022-12-07T07:22:11;6.60;;;5.63;;
23406;SDS011;11876;53.438;18.942;2022-12-07T07:25:14;6.93;;;5.93;;
23406;SDS011;11876;53.438;18.942;2022-12-07T07:28:16;7.90;;;5.60;;
23406;SDS011;11876;53.438;18.942;2022-12-07T07:31:19;8.63;;;6.35;;
23406;SDS011;11876;53.438;18.942;2022-12-07T07:34:21;8.00;;;5.53;;
23406;SDS011;11876;53.438;18.942;2022-12-07T07:37:24;7.05;;;5.68;;
23406;SDS011;11876;53.438;18.942;2022-12-07T07:40:27;6.68;;;5.75;;
23406;SDS011;11876;53.438;18.942;2022-12-07T07:43:33;7.70;;;6.03;;
23406;SDS011;11876;53.438;18.942;2022-12-07T07:46:35;6.97;;;5.57;;
23406;SDS011;11876;53.438;18.942;2022-12-07T07:49:37;7.25;;;5.82;;
23406;SDS011;11876;53.438;18.942;2022-12-07T07:52:48;7.03;;;6.03;;
23406;SDS011;11876;53.438;18.942;2022-12-07T07:55:53;8.75;;;7.68;;
23406;SDS011;11876;53.438;18.942;2022-12-07T07:58:56;8.68;;;6.97;;
23406;SDS011;11876;53.438;18.942;2022-12-07T08:01:58;10.07;;;7.65;;
23406;SDS011;11876;53.438;18.942;2022-12-07T08:05:01;8.57;;;7.60;;
23406;SDS011;11876;53.438;18.942;2022-12-07T08:08:04;13.48;;;8.57;;
23406;SDS011;11876;53.438;18.942;2022-12-07T08:11:07;10.38;;;8.45;;
23406;SDS011;11876;53.438;18.942;2022-12-07T08:14:10;14.05;;;8.65;;
23406;SDS011;11876;53.438;18.942;2022-12-07T08:17:12;11.68;;;9.32;;
23406;SDS011;11876;53.438;18.942;2022-12-07T08:20:15;13.65;;;9.80;;
23406;SDS011;11876;53.438;18.942;2022-12-07T08:23:17;13.00;;;9.60;;
23406;SDS011;11876;53.438;18.942;2022-12-07T08:26:20;12.55;;;9.57;;
23406;SDS011;11876;53.438;18.942;2022-12-07T08:29:22;15.13;;;10.98;;
23406;SDS011;11876;53.438;18.942;2022-12-07T08:32:24;14.07;;;10.48;;
23406;SDS011;11876;53.438;18.942;2022-12-07T08:35:27;14.57;;;11.25;;
23406;SDS011;11876;53.438;18.942;2022-12-07T08:38:29;12.63;;;9.65;;
23406;SDS011;11876;53.438;18.942;2022-12-07T08:41:32;11.40;;;8.60;;
23406;SDS011;11876;53.438;18.942;2022-12-07T08:44:35;14.38;;;10.48;;
23406;SDS011;11876;53.438;18.942;2022-12-07T08:47:38;14.13;;;10.68;;
23406;SDS011;11876;53.438;18.942;2022-12-07T08:50:44;19.98;;;12.30;;
23406;SDS011;11876;53.438;18.942;2022-12-07T08:53:51;23.48;;;14.30;;
23406;SDS011;11876;53.438;18.942;2022-12-07T08:56:54;14.88;;;9.98;;
23406;SDS011;11876;53.438;18.942;2022-12-07T09:00:00;17.25;;;11.57;;
23406;SDS011;11876;53.438;18.942;2022-12-07T09:03:03;19.42;;;11.98;;
23406;SDS011;11876;53.438;18.942;2022-12-07T09:06:05;15.35;;;11.18;;
23406;SDS011;11876;53.438;18.942;2022-12-07T09:09:09;14.77;;;10.70;;
23406;SDS011;11876;53.438;18.942;2022-12-07T09:12:12;22.15;;;12.85;;
23406;SDS011;11876;53.438;18.942;2022-12-07T09:15:15;18.85;;;12.43;;
23406;SDS011;11876;53.438;18.942;2022-12-07T09:18:17;18.15;;;13.15;;
23406;SDS011;11876;53.438;18.942;2022-12-07T09:21:19;14.73;;;10.95;;
23406;SDS011;11876;53.438;18.942;2022-12-07T09:24:22;20.42;;;11.65;;
23406;SDS011;11876;53.438;18.942;2022-12-07T09:27:24;14.20;;;10.18;;
23406;SDS011;11876;53.438;18.942;2022-12-07T09:30:27;18.33;;;11.07;;
23406;SDS011;11876;53.438;18.942;2022-12-07T09:33:30;16.40;;;11.30;;
23406;SDS011;11876;53.438;18.942;2022-12-07T09:36:32;15.15;;;10.75;;
23406;SDS011;11876;53.438;18.942;2022-12-07T09:39:37;15.10;;;11.25;;
23406;SDS011;11876;53.438;18.942;2022-12-07T09:42:49;10.57;;;8.45;;
23406;SDS011;11876;53.438;18.942;2022-12-07T09:45:54;41.95;;;17.10;;
23406;SDS011;11876;53.438;18.942;2022-12-07T09:48:57;13.50;;;9.20;;
23406;SDS011;11876;53.438;18.942;2022-12-07T09:52:03;15.82;;;11.77;;
23406;SDS011;11876;53.438;18.942;2022-12-07T09:58:28;17.63;;;11.98;;
23406;SDS011;11876;53.438;18.942;2022-12-07T10:01:31;19.60;;;13.48;;
23406;SDS011;11876;53.438;18.942;2022-12-07T10:04:35;20.35;;;13.32;;
23406;SDS011;11876;53.438;18.942;2022-12-07T10:07:39;24.67;;;14.45;;
23406;SDS011;11876;53.438;18.942;2022-12-07T10:10:42;36.67;;;23.50;;
23406;SDS011;11876;53.438;18.942;2022-12-07T10:13:46;20.38;;;10.73;;
23406;SDS011;11876;53.438;18.942;2022-12-07T10:16:50;27.13;;;13.77;;
23406;SDS011;11876;53.438;18.942;2022-12-07T10:19:52;25.55;;;13.95;;
23406;SDS011;11876;53.438;18.942;2022-12-07T10:23:14;27.83;;;13.73;;
23406;SDS011;11876;53.438;18.942;2022-12-07T10:32:34;27.40;;;14.90;;
23406;SDS011;11876;53.438;18.942;2022-12-07T10:35:39;27.45;;;14.63;;
23406;SDS011;11876;53.438;18.942;2022-12-07T10:38:47;24.27;;;14.95;;
23406;SDS011;11876;53.438;18.942;2022-12-07T10:41:59;20.27;;;12.70;;
23406;SDS011;11876;53.438;18.942;2022-12-07T10:54:58;22.20;;;13.88;;
23406;SDS011;11876;53.438;18.942;2022-12-07T11:07:49;19.05;;;13.00;;
23406;SDS011;11876;53.438;18.942;2022-12-07T11:20:58;19.60;;;14.05;;
23406;SDS011;11876;53.438;18.942;2022-12-07T11:24:14;16.55;;;11.60;;
23406;SDS011;11876;53.438;18.942;2022-12-07T11:30:44;16.92;;;11.23;;
23406;SDS011;11876;53.438;18.942;2022-12-07T11:33:55;19.77;;;13.93;;
23406;SDS011;11876;53.438;18.942;2022-12-07T11:37:09;18.25;;;13.07;;
23406;SDS011;11876;53.438;18.942;2022-12-07T11:43:32;18.27;;;12.20;;
23406;SDS011;11876;53.438;18.942;2022-12-07T11:56:14;16.67;;;11.80;;
23406;SDS011;11876;53.438;18.942;2022-12-07T11:59:38;16.23;;;11.95;;
23406;SDS011;11876;53.438;18.942;2022-12-07T12:02:50;16.88;;;11.75;;
23406;SDS011;11876;53.438;18.942;2022-12-07T12:05:56;16.83;;;11.65;;
23406;SDS011;11876;53.438;18.942;2022-12-07T12:26:18;17.80;;;12.35;;
23406;SDS011;11876;53.438;18.942;2022-12-07T12:33:01;18.58;;;12.30;;
23406;SDS011;11876;53.438;18.942;2022-12-07T12:42:42;19.75;;;14.20;;
23406;SDS011;11876;53.438;18.942;2022-12-07T12:46:10;21.17;;;14.68;;
23406;SDS011;11876;53.438;18.942;2022-12-07T12:49:37;19.43;;;15.87;;
23406;SDS011;11876;53.438;18.942;2022-12-07T12:56:03;20.30;;;15.05;;
23406;SDS011;11876;53.438;18.942;2022-12-07T13:02:25;20.25;;;15.27;;
23406;SDS011;11876;53.438;18.942;2022-12-07T13:05:29;19.23;;;14.50;;
23406;SDS011;11876;53.438;18.942;2022-12-07T13:08:32;19.73;;;14.38;;
23406;SDS011;11876;53.438;18.942;2022-12-07T13:11:38;19.70;;;14.70;;
23406;SDS011;11876;53.438;18.942;2022-12-07T13:18:00;26.08;;;16.42;;
23406;SDS011;11876;53.438;18.942;2022-12-07T13:24:07;21.13;;;15.80;;
23406;SDS011;11876;53.438;18.942;2022-12-07T13:27:12;20.30;;;14.75;;
23406;SDS011;11876;53.438;18.942;2022-12-07T13:30:16;20.58;;;15.85;;
23406;SDS011;11876;53.438;18.942;2022-12-07T13:33:21;23.25;;;15.52;;
23406;SDS011;11876;53.438;18.942;2022-12-07T13:36:24;23.55;;;16.52;;
23406;SDS011;11876;53.438;18.942;2022-12-07T13:39:28;24.60;;;16.83;;
23406;SDS011;11876;53.438;18.942;2022-12-07T13:42:31;23.83;;;17.08;;
23406;SDS011;11876;53.438;18.942;2022-12-07T13:45:35;24.77;;;18.20;;
23406;SDS011;11876;53.438;18.942;2022-12-07T13:48:49;26.55;;;19.10;;
23406;SDS011;11876;53.438;18.942;2022-12-07T13:51:52;29.67;;;19.70;;
23406;SDS011;11876;53.438;18.942;2022-12-07T13:58:07;31.00;;;21.15;;
23406;SDS011;11876;53.438;18.942;2022-12-07T14:01:10;29.97;;;21.20;;
23406;SDS011;11876;53.438;18.942;2022-12-07T14:04:16;26.70;;;18.92;;
23406;SDS011;11876;53.438;18.942;2022-12-07T14:07:34;21.67;;;15.77;;
23406;SDS011;11876;53.438;18.942;2022-12-07T14:13:58;19.45;;;14.77;;
23406;SDS011;11876;53.438;18.942;2022-12-07T14:17:11;18.73;;;13.73;;
23406;SDS011;11876;53.438;18.942;2022-12-07T14:23:39;19.15;;;13.77;;
23406;SDS011;11876;53.438;18.942;2022-12-07T14:26:42;15.83;;;10.93;;
23406;SDS011;11876;53.438;18.942;2022-12-07T14:29:45;16.47;;;11.73;;
23406;SDS011;11876;53.438;18.942;2022-12-07T14:32:53;20.20;;;14.07;;
23406;SDS011;11876;53.438;18.942;2022-12-07T14:35:57;18.65;;;13.98;;
23406;SDS011;11876;53.438;18.942;2022-12-07T14:38:59;18.23;;;12.60;;
23406;SDS011;11876;53.438;18.942;2022-12-07T14:42:02;20.77;;;15.57;;
23406;SDS011;11876;53.438;18.942;2022-12-07T14:45:05;20.05;;;14.15;;
23406;SDS011;11876;53.438;18.942;2022-12-07T14:48:16;20.48;;;14.00;;
23406;SDS011;11876;53.438;18.942;2022-12-07T14:51:39;19.83;;;13.75;;
23406;SDS011;11876;53.438;18.942;2022-12-07T14:55:03;15.23;;;10.25;;
23406;SDS011;11876;53.438;18.942;2022-12-07T14:58:06;16.10;;;12.02;;
23406;SDS011;11876;53.438;18.942;2022-12-07T15:01:10;20.10;;;14.05;;
23406;SDS011;11876;53.438;18.942;2022-12-07T15:04:12;21.20;;;14.77;;
23406;SDS011;11876;53.438;18.942;2022-12-07T15:07:19;15.82;;;12.13;;
23406;SDS011;11876;53.438;18.942;2022-12-07T15:10:23;20.85;;;13.82;;
23406;SDS011;11876;53.438;18.942;2022-12-07T15:13:31;17.55;;;12.90;;
23406;SDS011;11876;53.438;18.942;2022-12-07T15:16:52;19.02;;;13.85;;
23406;SDS011;11876;53.438;18.942;2022-12-07T15:20:15;18.15;;;12.90;;
23406;SDS011;11876;53.438;18.942;2022-12-07T15:23:19;17.67;;;12.63;;
23406;SDS011;11876;53.438;18.942;2022-12-07T15:26:23;16.85;;;12.88;;
23406;SDS011;11876;53.438;18.942;2022-12-07T15:29:26;20.58;;;14.73;;
23406;SDS011;11876;53.438;18.942;2022-12-07T15:32:28;19.30;;;13.38;;
23406;SDS011;11876;53.438;18.942;2022-12-07T15:35:31;21.77;;;14.85;;
23406;SDS011;11876;53.438;18.942;2022-12-07T15:38:34;21.00;;;14.32;;
23406;SDS011;11876;53.438;18.942;2022-12-07T15:41:57;17.08;;;12.02;;
23406;SDS011;11876;53.438;18.942;2022-12-07T15:44:59;18.38;;;13.45;;
23406;SDS011;11876;53.438;18.942;2022-12-07T15:48:06;21.38;;;14.05;;
23406;SDS011;11876;53.438;18.942;2022-12-07T15:51:28;17.63;;;12.93;;
23406;SDS011;11876;53.438;18.942;2022-12-07T15:54:31;19.45;;;12.95;;
23406;SDS011;11876;53.438;18.942;2022-12-07T15:57:34;17.83;;;13.10;;
23406;SDS011;11876;53.438;18.942;2022-12-07T16:00:38;18.35;;;11.93;;
23406;SDS011;11876;53.438;18.942;2022-12-07T16:03:40;17.00;;;12.52;;
23406;SDS011;11876;53.438;18.942;2022-12-07T16:06:43;20.95;;;13.57;;
23406;SDS011;11876;53.438;18.942;2022-12-07T16:09:46;21.02;;;15.25;;
23406;SDS011;11876;53.438;18.942;2022-12-07T16:12:48;18.50;;;13.50;;
23406;SDS011;11876;53.438;18.942;2022-12-07T16:15:51;18.80;;;12.70;;
23406;SDS011;11876;53.438;18.942;2022-12-07T16:18:53;27.60;;;18.00;;
23406;SDS011;11876;53.438;18.942;2022-12-07T16:21:56;18.40;;;13.43;;
23406;SDS011;11876;53.438;18.942;2022-12-07T16:24:58;15.63;;;11.80;;
23406;SDS011;11876;53.438;18.942;2022-12-07T16:28:01;20.02;;;13.48;;
23406;SDS011;11876;53.438;18.942;2022-12-07T16:31:07;18.02;;;13.23;;
23406;SDS011;11876;53.438;18.942;2022-12-07T16:34:12;17.70;;;13.70;;
23406;SDS011;11876;53.438;18.942;2022-12-07T16:37:14;17.98;;;13.35;;
23406;SDS011;11876;53.438;18.942;2022-12-07T16:40:16;17.15;;;12.68;;
23406;SDS011;11876;53.438;18.942;2022-12-07T16:43:19;19.65;;;12.98;;
23406;SDS011;11876;53.438;18.942;2022-12-07T16:46:21;21.08;;;14.77;;
23406;SDS011;11876;53.438;18.942;2022-12-07T16:49:24;20.48;;;14.23;;
23406;SDS011;11876;53.438;18.942;2022-12-07T16:52:26;19.10;;;14.52;;
23406;SDS011;11876;53.438;18.942;2022-12-07T16:55:28;21.20;;;14.32;;
23406;SDS011;11876;53.438;18.942;2022-12-07T16:58:31;20.70;;;14.65;;
23406;SDS011;11876;53.438;18.942;2022-12-07T17:01:34;20.92;;;15.02;;
23406;SDS011;11876;53.438;18.942;2022-12-07T17:04:37;22.73;;;14.20;;
23406;SDS011;11876;53.438;18.942;2022-12-07T17:07:41;25.80;;;17.88;;
23406;SDS011;11876;53.438;18.942;2022-12-07T17:10:43;20.85;;;14.52;;
23406;SDS011;11876;53.438;18.942;2022-12-07T17:13:46;21.30;;;14.75;;
23406;SDS011;11876;53.438;18.942;2022-12-07T17:17:08;23.58;;;15.07;;
23406;SDS011;11876;53.438;18.942;2022-12-07T17:20:11;22.23;;;15.18;;
23406;SDS011;11876;53.438;18.942;2022-12-07T17:23:14;23.55;;;14.15;;
23406;SDS011;11876;53.438;18.942;2022-12-07T17:26:18;21.13;;;13.50;;
23406;SDS011;11876;53.438;18.942;2022-12-07T17:29:22;19.83;;;14.38;;
23406;SDS011;11876;53.438;18.942;2022-12-07T17:32:24;23.73;;;15.68;;
23406;SDS011;11876;53.438;18.942;2022-12-07T17:35:26;21.23;;;13.02;;
23406;SDS011;11876;53.438;18.942;2022-12-07T17:38:29;20.85;;;13.90;;
23406;SDS011;11876;53.438;18.942;2022-12-07T17:41:31;18.55;;;12.95;;
23406;SDS011;11876;53.438;18.942;2022-12-07T17:44:52;21.08;;;12.75;;
23406;SDS011;11876;53.438;18.942;2022-12-07T17:47:55;21.02;;;12.88;;
23406;SDS011;11876;53.438;18.942;2022-12-07T17:51:00;20.92;;;14.32;;
23406;SDS011;11876;53.438;18.942;2022-12-07T17:54:21;19.27;;;12.48;;
23406;SDS011;11876;53.438;18.942;2022-12-07T17:57:24;17.42;;;11.02;;
23406;SDS011;11876;53.438;18.942;2022-12-07T18:00:26;18.55;;;12.23;;
23406;SDS011;11876;53.438;18.942;2022-12-07T18:03:29;17.55;;;11.63;;
23406;SDS011;11876;53.438;18.942;2022-12-07T18:06:32;15.40;;;10.82;;
23406;SDS011;11876;53.438;18.942;2022-12-07T18:09:35;19.27;;;11.47;;
23406;SDS011;11876;53.438;18.942;2022-12-07T18:12:37;13.50;;;9.77;;
23406;SDS011;11876;53.438;18.942;2022-12-07T18:15:54;15.50;;;10.65;;
23406;SDS011;11876;53.438;18.942;2022-12-07T18:18:58;19.98;;;11.32;;
23406;SDS011;11876;53.438;18.942;2022-12-07T18:25:05;22.33;;;11.85;;
23406;SDS011;11876;53.438;18.942;2022-12-07T18:28:08;22.67;;;14.02;;
23406;SDS011;11876;53.438;18.942;2022-12-07T18:31:10;22.77;;;13.38;;
23406;SDS011;11876;53.438;18.942;2022-12-07T18:34:17;28.33;;;14.50;;
23406;SDS011;11876;53.438;18.942;2022-12-07T18:37:20;26.23;;;13.48;;
23406;SDS011;11876;53.438;18.942;2022-12-07T18:40:24;27.25;;;14.18;;
23406;SDS011;11876;53.438;18.942;2022-12-07T18:43:27;24.98;;;14.40;;
23406;SDS011;11876;53.438;18.942;2022-12-07T18:46:29;31.33;;;15.07;;
23406;SDS011;11876;53.438;18.942;2022-12-07T18:49:32;37.60;;;14.57;;
23406;SDS011;11876;53.438;18.942;2022-12-07T18:52:34;29.35;;;15.25;;
23406;SDS011;11876;53.438;18.942;2022-12-07T18:55:37;28.23;;;15.77;;
23406;SDS011;11876;53.438;18.942;2022-12-07T18:58:40;28.30;;;16.15;;
23406;SDS011;11876;53.438;18.942;2022-12-07T19:02:01;32.55;;;16.60;;
23406;SDS011;11876;53.438;18.942;2022-12-07T19:05:04;26.35;;;15.48;;
23406;SDS011;11876;53.438;18.942;2022-12-07T19:08:07;24.05;;;12.80;;
23406;SDS011;11876;53.438;18.942;2022-12-07T19:11:16;26.23;;;16.08;;
23406;SDS011;11876;53.438;18.942;2022-12-07T19:14:41;25.38;;;17.05;;
23406;SDS011;11876;53.438;18.942;2022-12-07T19:17:43;22.30;;;16.33;;
23406;SDS011;11876;53.438;18.942;2022-12-07T19:20:46;24.73;;;13.43;;
23406;SDS011;11876;53.438;18.942;2022-12-07T19:23:48;20.50;;;13.20;;
23406;SDS011;11876;53.438;18.942;2022-12-07T19:26:51;21.25;;;14.02;;
23406;SDS011;11876;53.438;18.942;2022-12-07T19:29:53;20.30;;;13.07;;
23406;SDS011;11876;53.438;18.942;2022-12-07T19:32:56;22.20;;;14.32;;
23406;SDS011;11876;53.438;18.942;2022-12-07T19:35:58;19.02;;;13.32;;
23406;SDS011;11876;53.438;18.942;2022-12-07T19:39:00;19.00;;;12.63;;
23406;SDS011;11876;53.438;18.942;2022-12-07T19:42:03;17.48;;;11.07;;
23406;SDS011;11876;53.438;18.942;2022-12-07T19:45:06;17.60;;;12.45;;
23406;SDS011;11876;53.438;18.942;2022-12-07T19:48:08;14.50;;;11.65;;
23406;SDS011;11876;53.438;18.942;2022-12-07T19:51:10;12.45;;;10.65;;
23406;SDS011;11876;53.438;18.942;2022-12-07T19:54:14;15.63;;;11.90;;
23406;SDS011;11876;53.438;18.942;2022-12-07T19:57:18;17.85;;;12.57;;
23406;SDS011;11876;53.438;18.942;2022-12-07T20:00:20;16.85;;;10.93;;